Georgetown, TN (37336)

1:05 PM EST on November 26, 2014 (GMT -0500)
Bakewell | Change Station
CLOSE
Current Station
Personal Weather Station
Location: Soddy Daisy, TN
Elevation: 764 ft
Nearby Weather Stations

Elev 764 ft 35.33 °N, 85.08 °W | Updated 3 seconds ago

Partly Cloudy
Partly Cloudy
52.8 °F
Feels Like 52.8 °F
N
5.0
Wind Variable Wind from WNW
Gusts 8.0 mph

Today
High -- | Low -- °F
--% Chance of Precip.
Yesterday
High -- | Low -- °F
Precip. -- in
7:25 AM 5:28 PM
Waxing Crescent, 21% visible
Pressure 30.08 in
Visibility 10.0 miles
Clouds Clear
Dew Point 29 °F
Humidity 40%
Rainfall 0.00 in
Snow Depth Not available.
UV 4 out of 12
Pollen .20 out of 12
Air Quality Not available.
Flu Activity Not available.
METAR KRZR 261755Z AUTO VRB03KT 10SM CLR 10/M05 A3008 RMK

More Conditions Fewer Conditions

Pressure 30.08 in
Visibility 10.0 miles
Clouds Clear
Dew Point 29 °F
Humidity 40%
Rainfall 0.00 in
Snow Depth Not available.
UV 4 out of 12
Pollen .20 out of 12
Air Quality Not available.
Flu Activity Not available.
METAR KRZR 261755Z AUTO VRB03KT 10SM CLR 10/M05 A3008 RMK

More Conditions Fewer Conditions

10-Day Weather Forecast

Almanac

Astronomy

Nov. 26, 2014 Rise Set
Actual Time
Civil Twilight
Nautical Twilight
Astronomical Twilight
Moon
Length of Visible Light
Length of Day
Tomorrow will be .
, % of the Moon is Illuminated

Today's Extremes

State Highs State Lows

Community

WunderPhotos

Upload Photos

1,773,813 photos uploaded!

WunderBlogs® & News

Nearby

Air Quality

  Air Quality AQ Index Pollutant
Not available.

Snow Depth

Station Depth Elevation

Earthquake Activity

City Distance Mag. Time & Date
Minimum magnitude displayed is 2.5.

Coastal Water Temperatures

Place Temperature

Nearby Weather Stations